createdAt,value
2023-05-01T00:01:35.862Z,99400.62
2023-05-01T00:04:03.098Z,99404.28
2023-05-01T00:06:33.115Z,99409.35
2023-05-01T00:09:00.124Z,99411.52
2023-05-01T00:11:27.046Z,99415.20
2023-05-01T00:13:54.148Z,99414.39
2023-05-01T00:16:20.945Z,99417.02
2023-05-01T00:18:47.782Z,99413.87
2023-05-01T00:21:14.694Z,99417.96
2023-05-01T00:23:41.579Z,99418.58
2023-05-01T00:26:08.378Z,99420.58
2023-05-01T00:28:35.608Z,99420.85
2023-05-01T00:31:02.547Z,99423.05
2023-05-01T00:33:30.003Z,99422.40
2023-05-01T00:35:56.885Z,99422.94
2023-05-01T00:38:23.761Z,99426.26
2023-05-01T00:40:50.714Z,99432.84
2023-05-01T00:43:17.376Z,99434.39
2023-05-01T00:45:45.808Z,99441.67
2023-05-01T00:48:12.824Z,99443.66
2023-05-01T00:50:39.565Z,99448.27
2023-05-01T00:53:06.559Z,99453.37
2023-05-01T00:55:33.257Z,99454.04
2023-05-01T00:58:00.205Z,99455.25
2023-05-01T01:00:28.770Z,99454.31
2023-05-01T01:02:55.501Z,99454.53
2023-05-01T01:05:24.072Z,99456.00
2023-05-01T01:07:57.951Z,99465.09
2023-05-01T01:10:34.051Z,99467.72
2023-05-01T01:13:11.649Z,99472.90
2023-05-01T01:15:47.024Z,99478.77
2023-05-01T01:18:32.204Z,99481.85
2023-05-01T01:21:06.234Z,99488.16
2023-05-01T01:24:04.451Z,99492.64
2023-05-01T01:27:05.654Z,99482.16
2023-05-01T01:29:41.595Z,99475.77
2023-05-01T01:32:20.988Z,99476.17
2023-05-01T01:34:50.057Z,99482.85
2023-05-01T01:37:29.073Z,99485.83
2023-05-01T01:40:07.203Z,99480.83
2023-05-01T01:42:40.394Z,99481.35
2023-05-01T01:45:20.795Z,99483.73
2023-05-01T01:47:47.526Z,99486.11
2023-05-01T01:50:14.596Z,99488.28
2023-05-01T01:52:41.660Z,99490.16
2023-05-01T01:55:10.689Z,99498.39
2023-05-01T01:57:39.034Z,99503.84
2023-05-01T02:00:10.490Z,99502.25
2023-05-01T02:02:45.012Z,99507.59
2023-05-01T02:05:14.437Z,99513.15
2023-05-01T02:07:41.446Z,99520.35
2023-05-01T02:10:09.214Z,99522.70
2023-05-01T02:12:37.411Z,99528.86
2023-05-01T02:15:05.923Z,99525.73
2023-05-01T02:17:32.686Z,99523.81
2023-05-01T02:19:59.637Z,99525.26
2023-05-01T02:22:26.857Z,99530.37
2023-05-01T02:24:53.940Z,99529.52
2023-05-01T02:27:23.244Z,99528.57
2023-05-01T02:29:53.540Z,99538.69
2023-05-01T02:32:20.677Z,99538.58
2023-05-01T02:34:47.876Z,99534.94
2023-05-01T02:37:14.720Z,99541.81
2023-05-01T02:39:41.689Z,99545.83
2023-05-01T02:42:09.517Z,99550.59
2023-05-01T02:44:42.434Z,99550.79
2023-05-01T02:47:09.339Z,99552.27
2023-05-01T02:49:36.259Z,99554.03
2023-05-01T02:52:03.995Z,99561.66
2023-05-01T02:54:31.587Z,99563.96
2023-05-01T02:56:59.248Z,99570.36
2023-05-01T02:59:26.026Z,99572.84
2023-05-01T03:01:52.795Z,99568.83
2023-05-01T03:04:19.566Z,99570.29
2023-05-01T03:06:46.371Z,99574.86
2023-05-01T03:09:13.135Z,99577.21
2023-05-01T03:11:39.991Z,99577.08
2023-05-01T03:14:06.988Z,99578.09
2023-05-01T03:16:33.871Z,99581.65
2023-05-01T03:19:01.312Z,99583.90
2023-05-01T03:21:28.108Z,99587.77
2023-05-01T03:23:55.070Z,99592.63
2023-05-01T03:26:21.832Z,99593.08
2023-05-01T03:28:50.227Z,99599.26
2023-05-01T03:31:16.962Z,99597.14
2023-05-01T03:33:44.097Z,99600.89
2023-05-01T03:36:12.008Z,99603.84
2023-05-01T03:38:38.837Z,99605.27
2023-05-01T03:41:11.207Z,99601.52
2023-05-01T03:43:56.585Z,99606.35
2023-05-01T03:46:37.245Z,99612.30
2023-05-01T03:49:04.733Z,99611.93
2023-05-01T03:51:34.215Z,99614.25
2023-05-01T03:54:00.919Z,99618.36
2023-05-01T03:56:34.910Z,99622.62
2023-05-01T03:59:01.898Z,99619.85
2023-05-01T04:01:29.415Z,99620.27
2023-05-01T04:03:56.316Z,99621.85
2023-05-01T04:06:23.222Z,99625.02
2023-05-01T04:08:50.100Z,99628.55
2023-05-01T04:11:16.728Z,99627.75
2023-05-01T04:13:43.575Z,99632.53
2023-05-01T04:16:10.448Z,99632.17
2023-05-01T04:18:37.315Z,99636.10
2023-05-01T04:21:04.554Z,99637.90
2023-05-01T04:23:31.273Z,99638.39
2023-05-01T04:25:58.798Z,99640.74
2023-05-01T04:28:27.175Z,99648.30
2023-05-01T04:30:54.057Z,99650.67
2023-05-01T04:33:22.064Z,99653.23
2023-05-01T04:35:49.542Z,99658.59
2023-05-01T04:38:16.486Z,99664.38
2023-05-01T04:40:43.716Z,99666.66
2023-05-01T04:43:10.993Z,99662.85
2023-05-01T04:45:38.480Z,99666.44
2023-05-01T04:48:06.221Z,99664.84
2023-05-01T04:50:32.992Z,99666.02
2023-05-01T04:53:00.368Z,99667.35
2023-05-01T04:55:29.733Z,99671.73
2023-05-01T04:58:44.385Z,99672.61
2023-05-01T05:01:14.012Z,99678.83
2023-05-01T05:03:41.244Z,99679.77
2023-05-01T05:06:09.300Z,99686.52
2023-05-01T05:08:36.234Z,99686.29
2023-05-01T05:11:11.010Z,99692.02
2023-05-01T05:13:48.782Z,99690.66
2023-05-01T05:16:15.833Z,99694.75
2023-05-01T05:18:42.874Z,99696.52
2023-05-01T05:21:10.751Z,99696.38
2023-05-01T05:23:42.308Z,99702.52
2023-05-01T05:26:09.265Z,99703.54
2023-05-01T05:28:36.256Z,99707.19
2023-05-01T05:31:03.479Z,99709.39
2023-05-01T05:33:30.391Z,99712.80
2023-05-01T05:35:58.848Z,99714.09
2023-05-01T05:38:27.255Z,99718.91
2023-05-01T05:40:56.416Z,99720.44
2023-05-01T05:43:24.948Z,99717.11
2023-05-01T05:45:57.603Z,99726.30
2023-05-01T05:48:24.992Z,99721.61
2023-05-01T05:50:52.770Z,99725.61
2023-05-01T05:53:20.473Z,99729.58
2023-05-01T05:55:47.898Z,99731.77
2023-05-01T05:58:20.096Z,99736.80
2023-05-01T06:00:48.676Z,99740.09
2023-05-01T06:03:16.366Z,99745.85
2023-05-01T06:05:44.056Z,99748.48
2023-05-01T06:08:11.511Z,99749.54
2023-05-01T06:10:39.723Z,99750.36
2023-05-01T06:13:14.288Z,99754.64
2023-05-01T06:15:45.064Z,99755.04
2023-05-01T06:18:12.364Z,99755.63
2023-05-01T06:20:39.330Z,99757.17
2023-05-01T06:23:08.556Z,99768.04
2023-05-01T06:25:49.004Z,99766.30
2023-05-01T06:28:16.175Z,99766.75
2023-05-01T06:30:43.073Z,99772.24
2023-05-01T06:33:10.886Z,99774.02
2023-05-01T06:35:41.468Z,99779.62
2023-05-01T06:38:08.519Z,99782.30
2023-05-01T06:40:35.457Z,99782.38
2023-05-01T06:43:03.154Z,99788.09
2023-05-01T06:45:30.026Z,99789.27
2023-05-01T06:47:57.597Z,99790.00
2023-05-01T06:50:24.527Z,99800.38
2023-05-01T06:52:52.130Z,99791.38
2023-05-01T06:55:19.123Z,99791.61
2023-05-01T06:57:46.089Z,99792.69
2023-05-01T07:00:13.823Z,99791.98
2023-05-01T07:02:41.114Z,99794.13
2023-05-01T07:05:08.289Z,99800.45
2023-05-01T07:07:37.509Z,99806.65
2023-05-01T07:10:06.204Z,99802.03
2023-05-01T07:12:33.020Z,99805.08
2023-05-01T07:15:00.269Z,99809.83
2023-05-01T07:17:27.186Z,99810.57
2023-05-01T07:19:54.326Z,99815.50
2023-05-01T07:22:21.282Z,99811.34
2023-05-01T07:24:48.036Z,99809.13
2023-05-01T07:27:15.113Z,99812.20
2023-05-01T07:29:41.969Z,99820.47
2023-05-01T07:32:08.906Z,99820.77
2023-05-01T07:34:35.807Z,99820.36
2023-05-01T07:37:02.658Z,99820.69
2023-05-01T07:39:29.476Z,99826.97
2023-05-01T07:41:59.344Z,99831.02
2023-05-01T07:44:26.219Z,99828.14
2023-05-01T07:46:53.333Z,99834.75
2023-05-01T07:49:20.395Z,99832.55
2023-05-01T07:51:47.186Z,99835.14
2023-05-01T07:54:15.815Z,99834.67
2023-05-01T07:56:42.731Z,99841.48
2023-05-01T07:59:09.586Z,99838.90
2023-05-01T08:01:36.621Z,99844.52
2023-05-01T08:04:07.231Z,99858.92
2023-05-01T08:06:34.394Z,99855.12
2023-05-01T08:09:01.408Z,99854.20
2023-05-01T08:11:29.680Z,99856.14
2023-05-01T08:13:56.586Z,99848.15
2023-05-01T08:16:23.561Z,99856.73
2023-05-01T08:18:50.604Z,99860.92
2023-05-01T08:21:17.483Z,99855.92
2023-05-01T08:23:44.383Z,99856.95
2023-05-01T08:26:11.409Z,99859.59
2023-05-01T08:28:38.358Z,99862.31
2023-05-01T08:31:05.529Z,99857.83
2023-05-01T08:33:32.531Z,99861.58
2023-05-01T08:35:59.362Z,99864.91
2023-05-01T08:38:26.589Z,99856.88
2023-05-01T08:40:53.953Z,99864.45
2023-05-01T08:43:20.906Z,99865.93
2023-05-01T08:45:48.374Z,99867.27
2023-05-01T08:48:18.056Z,99861.04
2023-05-01T08:50:46.371Z,99858.58
2023-05-01T08:53:14.496Z,99872.54
2023-05-01T08:55:44.003Z,99868.86
2023-05-01T08:58:11.100Z,99868.54
2023-05-01T09:00:38.270Z,99872.62
2023-05-01T09:03:05.399Z,99873.45
2023-05-01T09:05:33.110Z,99879.02
2023-05-01T09:08:00.024Z,99882.08
2023-05-01T09:10:27.258Z,99875.65
2023-05-01T09:12:58.592Z,99881.88
2023-05-01T09:15:26.182Z,99886.98
2023-05-01T09:17:53.598Z,99886.08
2023-05-01T09:20:20.614Z,99892.07
2023-05-01T09:22:47.483Z,99898.81
2023-05-01T09:25:14.377Z,99893.92
2023-05-01T09:27:41.238Z,99892.77
2023-05-01T09:30:09.052Z,99887.48
2023-05-01T09:32:36.183Z,99887.77
2023-05-01T09:35:13.613Z,99888.85
2023-05-01T09:37:40.845Z,99889.73
2023-05-01T09:40:12.059Z,99893.67
2023-05-01T09:42:41.285Z,99897.86
2023-05-01T09:45:14.921Z,99902.67
2023-05-01T09:47:43.944Z,99905.15
2023-05-01T09:50:13.919Z,99900.23
2023-05-01T09:52:40.785Z,99901.56
2023-05-01T09:55:17.391Z,99902.83
2023-05-01T09:57:45.389Z,99901.27
2023-05-01T10:00:14.692Z,99899.64
2023-05-01T10:02:42.878Z,99896.98
2023-05-01T10:05:10.455Z,99897.15
2023-05-01T10:07:37.928Z,99899.33
2023-05-01T10:10:17.916Z,99900.75
2023-05-01T10:12:44.818Z,99908.02
2023-05-01T10:15:24.012Z,99906.48
2023-05-01T10:17:52.487Z,99902.17
2023-05-01T10:20:19.923Z,99907.52
2023-05-01T10:22:47.224Z,99903.48
2023-05-01T10:25:15.123Z,99911.02
2023-05-01T10:27:42.055Z,99909.44
2023-05-01T10:30:10.150Z,99903.80
2023-05-01T10:32:40.326Z,99909.85
2023-05-01T10:35:12.719Z,99910.45
2023-05-01T10:37:46.467Z,99909.15
2023-05-01T10:40:48.371Z,99912.06
2023-05-01T10:43:26.489Z,99906.99
2023-05-01T10:45:54.807Z,99913.10
2023-05-01T10:48:43.987Z,99905.25
2023-05-01T10:51:28.202Z,99910.14
2023-05-01T10:54:14.054Z,99915.52
2023-05-01T10:56:43.001Z,99917.91
2023-05-01T10:59:10.682Z,99914.48
2023-05-01T11:01:39.969Z,99922.57
2023-05-01T11:04:08.447Z,99925.63
2023-05-01T11:06:36.109Z,99917.98
2023-05-01T11:09:04.719Z,99914.23
2023-05-01T11:11:31.524Z,99916.27
2023-05-01T11:14:02.105Z,99916.29
2023-05-01T11:16:38.508Z,99910.67
2023-05-01T11:19:06.055Z,99907.14
2023-05-01T11:21:36.683Z,99910.33
2023-05-01T11:24:04.170Z,99904.25
2023-05-01T11:26:32.519Z,99909.98
2023-05-01T11:29:02.096Z,99919.82
2023-05-01T11:31:29.225Z,99917.63
2023-05-01T11:33:56.867Z,99919.42
2023-05-01T11:36:23.795Z,99923.70
2023-05-01T11:38:53.938Z,99927.02
2023-05-01T11:41:24.111Z,99925.91
2023-05-01T11:43:55.607Z,99918.77
2023-05-01T11:46:29.094Z,99918.48
2023-05-01T11:49:01.722Z,99921.88
2023-05-01T11:51:28.840Z,99922.48
2023-05-01T11:54:03.526Z,99924.06
2023-05-01T11:56:30.646Z,99923.46
2023-05-01T11:58:58.814Z,99932.18
2023-05-01T12:01:38.755Z,99923.73
2023-05-01T12:04:06.428Z,99931.14
2023-05-01T12:06:43.834Z,99925.63
2023-05-01T12:09:11.740Z,99933.03
2023-05-01T12:11:38.605Z,99932.70
2023-05-01T12:14:05.691Z,99929.75
2023-05-01T12:16:32.837Z,99927.06
2023-05-01T12:18:59.771Z,99931.48
2023-05-01T12:21:28.243Z,99921.41
2023-05-01T12:23:55.219Z,99927.42
2023-05-01T12:26:25.787Z,99930.30
2023-05-01T12:29:01.989Z,99933.42
2023-05-01T12:31:29.365Z,99930.98
2023-05-01T12:33:57.695Z,99932.86
2023-05-01T12:36:25.491Z,99926.45
2023-05-01T12:39:12.114Z,99932.91
2023-05-01T12:41:40.718Z,99933.63
2023-05-01T12:44:24.470Z,99930.66
2023-05-01T12:47:01.139Z,99933.30
2023-05-01T12:49:29.797Z,99935.40
2023-05-01T12:52:01.244Z,99934.94
2023-05-01T12:54:29.661Z,99939.34
2023-05-01T12:57:06.764Z,99942.33
2023-05-01T12:59:33.600Z,99943.02
2023-05-01T13:02:02.153Z,99941.11
2023-05-01T13:04:29.226Z,99944.08
2023-05-01T13:06:57.076Z,99949.52
2023-05-01T13:09:24.845Z,99953.89
2023-05-01T13:11:59.554Z,99948.59
2023-05-01T13:14:26.395Z,99943.41
2023-05-01T13:16:54.061Z,99946.14
2023-05-01T13:19:28.514Z,99945.73
2023-05-01T13:21:58.402Z,99947.29
2023-05-01T13:24:35.847Z,99953.89
2023-05-01T13:27:05.011Z,99955.50
2023-05-01T13:29:32.655Z,99956.30
2023-05-01T13:31:59.934Z,99961.52
2023-05-01T13:34:30.894Z,99960.43
2023-05-01T13:36:58.216Z,99962.70
2023-05-01T13:39:25.074Z,99963.31
2023-05-01T13:41:52.438Z,99968.16
2023-05-01T13:44:19.531Z,99967.95
2023-05-01T13:46:46.665Z,99967.59
2023-05-01T13:49:14.185Z,99969.34
2023-05-01T13:51:42.971Z,99970.23
2023-05-01T13:54:10.331Z,99971.44
2023-05-01T13:56:38.037Z,99976.05
2023-05-01T13:59:06.398Z,99977.58
2023-05-01T14:01:38.886Z,99977.80
2023-05-01T14:04:13.264Z,99983.27
2023-05-01T14:06:44.203Z,99982.58
2023-05-01T14:09:11.267Z,99979.77
2023-05-01T14:11:46.875Z,99978.73
2023-05-01T14:14:17.542Z,99985.97
2023-05-01T14:16:47.798Z,99985.30
2023-05-01T14:19:16.588Z,99983.25
2023-05-01T14:21:43.558Z,99990.84
2023-05-01T14:24:10.718Z,99990.23
2023-05-01T14:26:40.218Z,99993.01
2023-05-01T14:29:08.846Z,99998.17
2023-05-01T14:31:36.792Z,99999.10
2023-05-01T14:34:04.894Z,99996.37
2023-05-01T14:36:32.732Z,100001.60
2023-05-01T14:39:00.433Z,99998.02
2023-05-01T14:41:27.474Z,100003.55
2023-05-01T14:43:54.326Z,100006.33
2023-05-01T14:46:31.792Z,100010.31
2023-05-01T14:48:59.514Z,100014.98
2023-05-01T14:51:27.304Z,100016.48
2023-05-01T14:53:55.553Z,100015.77
2023-05-01T14:56:23.157Z,100018.21
2023-05-01T14:58:50.019Z,100014.65
2023-05-01T15:01:17.054Z,100019.08
2023-05-01T15:03:45.624Z,100014.58
2023-05-01T15:06:12.737Z,100018.51
2023-05-01T15:08:39.846Z,100021.86
2023-05-01T15:11:06.771Z,100025.49
2023-05-01T15:13:33.533Z,100026.86
2023-05-01T15:16:01.041Z,100027.17
2023-05-01T15:18:27.939Z,100028.85
2023-05-01T15:20:55.713Z,100030.46
2023-05-01T15:23:22.850Z,100032.56
2023-05-01T15:25:50.741Z,100037.84
2023-05-01T15:28:17.812Z,100038.51
2023-05-01T15:30:45.898Z,100039.55
2023-05-01T15:33:15.380Z,100041.52
2023-05-01T15:35:44.098Z,100042.27
2023-05-01T15:38:10.865Z,100045.38
2023-05-01T15:40:37.772Z,100043.83
2023-05-01T15:43:05.423Z,100046.59
2023-05-01T15:45:33.351Z,100047.56
2023-05-01T15:48:02.084Z,100053.84
2023-05-01T15:50:28.882Z,100054.80
2023-05-01T15:52:56.364Z,100055.92
2023-05-01T15:55:23.159Z,100055.48
2023-05-01T15:57:49.882Z,100058.88
2023-05-01T16:00:17.365Z,100058.04
2023-05-01T16:02:44.650Z,100062.99
2023-05-01T16:05:12.364Z,100071.22
2023-05-01T16:07:39.325Z,100071.21
2023-05-01T16:10:08.081Z,100074.60
2023-05-01T16:12:34.923Z,100078.51
2023-05-01T16:15:05.626Z,100081.59
2023-05-01T16:17:43.329Z,100082.12
2023-05-01T16:20:11.868Z,100083.58
2023-05-01T16:22:40.199Z,100091.33
2023-05-01T16:25:08.625Z,100094.27
2023-05-01T16:27:35.842Z,100098.31
2023-05-01T16:30:05.367Z,100098.36
2023-05-01T16:32:32.039Z,100103.84
2023-05-01T16:34:59.182Z,100108.20
2023-05-01T16:37:27.015Z,100108.98
2023-05-01T16:39:53.752Z,100110.20
2023-05-01T16:42:20.728Z,100119.91
2023-05-01T16:44:47.715Z,100122.48
2023-05-01T16:47:14.520Z,100129.48
2023-05-01T16:49:46.540Z,100128.60
2023-05-01T16:52:15.733Z,100133.21
2023-05-01T16:54:42.798Z,100136.66
2023-05-01T16:57:09.720Z,100140.35
2023-05-01T16:59:37.389Z,100137.86
2023-05-01T17:02:05.959Z,100145.10
2023-05-01T17:04:33.550Z,100144.80
2023-05-01T17:07:00.481Z,100145.57
2023-05-01T17:09:27.423Z,100150.94
2023-05-01T17:11:56.983Z,100154.82
2023-05-01T17:16:30.393Z,100160.23
2023-05-01T17:18:57.236Z,100164.44
2023-05-01T17:21:25.211Z,100163.61
2023-05-01T17:23:52.129Z,100166.44
2023-05-01T17:26:19.001Z,100171.48
2023-05-01T17:28:45.856Z,100172.08
2023-05-01T17:31:13.133Z,100176.11
2023-05-01T17:33:41.038Z,100177.48
2023-05-01T17:36:08.761Z,100178.61
2023-05-01T17:38:36.013Z,100181.35
2023-05-01T17:41:03.336Z,100188.45
2023-05-01T17:43:30.249Z,100193.45
2023-05-01T17:45:58.175Z,100196.98
2023-05-01T17:48:25.077Z,100200.84
2023-05-01T17:50:52.001Z,100207.29
2023-05-01T17:53:18.833Z,100206.24
2023-05-01T17:55:45.816Z,100210.48
2023-05-01T17:58:12.925Z,100212.08
2023-05-01T18:00:39.786Z,100216.67
2023-05-01T18:03:06.794Z,100219.86
2023-05-01T18:05:33.931Z,100223.91
2023-05-01T18:08:00.799Z,100222.91
2023-05-01T18:10:31.147Z,100231.85
2023-05-01T18:12:58.939Z,100232.05
2023-05-01T18:15:26.003Z,100237.94
2023-05-01T18:17:53.232Z,100237.67
2023-05-01T18:20:20.356Z,100242.11
2023-05-01T18:22:47.192Z,100240.81
2023-05-01T18:25:16.051Z,100242.44
2023-05-01T18:27:43.354Z,100247.13
2023-05-01T18:30:11.406Z,100251.74
2023-05-01T18:32:47.481Z,100252.77
2023-05-01T18:35:16.423Z,100253.37
2023-05-01T18:37:44.250Z,100258.79
2023-05-01T18:40:11.765Z,100264.17
2023-05-01T18:42:41.067Z,100265.16
2023-05-01T18:45:08.421Z,100263.48
2023-05-01T18:47:35.208Z,100269.95
2023-05-01T18:50:02.426Z,100279.20
2023-05-01T18:52:29.946Z,100279.52
2023-05-01T18:54:56.821Z,100282.61
2023-05-01T18:57:23.688Z,100284.26
2023-05-01T18:59:50.667Z,100285.81
2023-05-01T19:02:17.487Z,100284.80
2023-05-01T19:04:56.861Z,100284.28
2023-05-01T19:07:25.886Z,100285.88
2023-05-01T19:09:52.694Z,100288.51
2023-05-01T19:12:19.615Z,100290.09
2023-05-01T19:14:46.408Z,100292.63
2023-05-01T19:17:13.242Z,100294.52
2023-05-01T19:19:40.424Z,100294.97
2023-05-01T19:22:07.393Z,100300.23
2023-05-01T19:24:34.215Z,100300.99
2023-05-01T19:27:03.453Z,100301.80
2023-05-01T19:29:34.164Z,100303.45
2023-05-01T19:32:01.018Z,100304.48
2023-05-01T19:34:28.301Z,100306.30
2023-05-01T19:36:57.141Z,100308.17
2023-05-01T19:39:24.258Z,100307.39
2023-05-01T19:41:51.268Z,100310.89
2023-05-01T19:44:18.192Z,100312.59
2023-05-01T19:46:45.125Z,100314.16
2023-05-01T19:49:12.075Z,100314.11
2023-05-01T19:51:39.040Z,100316.02
2023-05-01T19:54:05.872Z,100318.50
2023-05-01T19:56:32.669Z,100316.85
2023-05-01T19:58:59.421Z,100321.75
2023-05-01T20:01:26.283Z,100324.75
2023-05-01T20:03:53.203Z,100323.58
2023-05-01T20:06:20.185Z,100327.36
2023-05-01T20:08:47.289Z,100327.98
2023-05-01T20:11:14.390Z,100330.25
2023-05-01T20:13:41.287Z,100331.09
2023-05-01T20:16:09.807Z,100332.41
2023-05-01T20:18:37.347Z,100333.67
2023-05-01T20:21:06.131Z,100332.17
2023-05-01T20:23:33.501Z,100334.21
2023-05-01T20:26:00.835Z,100335.85
2023-05-01T20:28:27.684Z,100335.11
2023-05-01T20:30:54.497Z,100336.25
2023-05-01T20:33:21.386Z,100339.67
2023-05-01T20:35:48.328Z,100339.15
2023-05-01T20:38:15.168Z,100340.02
2023-05-01T20:40:42.355Z,100338.88
2023-05-01T20:43:09.219Z,100345.86
2023-05-01T20:45:36.026Z,100344.48
2023-05-01T20:48:03.023Z,100345.92
2023-05-01T20:50:29.900Z,100348.34
2023-05-01T20:52:56.709Z,100348.71
2023-05-01T20:55:23.719Z,100345.27
2023-05-01T20:57:50.733Z,100345.67
2023-05-01T21:00:17.596Z,100349.34
2023-05-01T21:02:44.691Z,100352.86
2023-05-01T21:05:11.924Z,100354.07
2023-05-01T21:07:41.677Z,100353.55
2023-05-01T21:10:12.033Z,100356.03
2023-05-01T21:12:38.912Z,100357.23
2023-05-01T21:15:06.199Z,100362.05
2023-05-01T21:17:33.522Z,100368.23
2023-05-01T21:20:01.588Z,100371.48
2023-05-01T21:22:28.574Z,100372.39
2023-05-01T21:24:59.922Z,100379.70
2023-05-01T21:27:27.496Z,100380.64
2023-05-01T21:29:59.352Z,100382.66
2023-05-01T21:32:28.724Z,100382.77
2023-05-01T21:34:56.273Z,100387.06
2023-05-01T21:37:23.067Z,100387.46
2023-05-01T21:39:50.357Z,100388.57
2023-05-01T21:42:17.239Z,100393.52
2023-05-01T21:44:44.025Z,100395.98
2023-05-01T21:47:11.317Z,100396.29
2023-05-01T21:49:39.891Z,100397.48
2023-05-01T21:52:08.914Z,100400.61
2023-05-01T21:54:36.508Z,100399.35
2023-05-01T21:57:05.670Z,100409.55
2023-05-01T21:59:35.294Z,100410.30
2023-05-01T22:02:07.740Z,100413.64
2023-05-01T22:04:35.108Z,100413.13
2023-05-01T22:07:02.050Z,100418.61
2023-05-01T22:09:28.899Z,100421.52
2023-05-01T22:11:55.843Z,100425.63
2023-05-01T22:14:22.809Z,100423.82
2023-05-01T22:16:49.708Z,100426.49
2023-05-01T22:19:16.640Z,100427.23
2023-05-01T22:21:43.433Z,100431.02
2023-05-01T22:24:10.840Z,100433.59
2023-05-01T22:26:37.627Z,100437.27
2023-05-01T22:29:04.612Z,100438.14
2023-05-01T22:31:31.498Z,100436.80
2023-05-01T22:33:58.499Z,100437.91
2023-05-01T22:36:25.389Z,100442.52
2023-05-01T22:38:52.189Z,100441.69
2023-05-01T22:41:19.045Z,100443.11
2023-05-01T22:43:45.852Z,100443.36
2023-05-01T22:46:12.807Z,100442.13
2023-05-01T22:48:39.827Z,100444.95
2023-05-01T22:51:06.876Z,100441.59
2023-05-01T22:53:33.749Z,100444.12
2023-05-01T22:56:01.290Z,100442.77
2023-05-01T22:58:28.060Z,100442.90
2023-05-01T23:00:54.810Z,100439.86
2023-05-01T23:03:21.955Z,100444.38
2023-05-01T23:05:48.948Z,100444.17
2023-05-01T23:08:15.921Z,100446.45
2023-05-01T23:10:42.772Z,100451.45
2023-05-01T23:13:18.004Z,100454.40
2023-05-01T23:15:46.446Z,100457.30
2023-05-01T23:18:21.822Z,100457.69
2023-05-01T23:20:50.028Z,100452.08
2023-05-01T23:23:17.152Z,100451.27
2023-05-01T23:25:45.541Z,100445.45
2023-05-01T23:28:12.594Z,100444.48
2023-05-01T23:30:40.463Z,100447.36
2023-05-01T23:33:07.294Z,100447.07
2023-05-01T23:35:34.232Z,100447.36
2023-05-01T23:38:00.990Z,100449.21
2023-05-01T23:40:27.723Z,100447.42
2023-05-01T23:42:55.231Z,100453.23
2023-05-01T23:45:21.973Z,100454.29
2023-05-01T23:47:48.833Z,100456.20
2023-05-01T23:50:15.735Z,100456.25
2023-05-01T23:52:42.486Z,100457.27
2023-05-01T23:55:09.492Z,100462.58
2023-05-01T23:57:36.368Z,100463.29
